createdAt,value
2023-05-12T00:00:15.303Z,9.68
2023-05-12T00:05:38.170Z,9.65
2023-05-12T00:10:41.415Z,9.66
2023-05-12T00:15:44.206Z,9.66
2023-05-12T00:20:47.529Z,9.67
2023-05-12T00:25:50.451Z,9.67
2023-05-12T00:30:53.366Z,9.65
2023-05-12T00:35:56.148Z,9.64
2023-05-12T00:40:58.885Z,9.62
2023-05-12T00:46:02.260Z,9.58
2023-05-12T00:51:06.211Z,9.56
2023-05-12T00:56:09.761Z,9.52
2023-05-12T01:01:12.708Z,9.48
2023-05-12T01:06:22.149Z,9.44
2023-05-12T01:11:25.073Z,9.37
2023-05-12T01:16:32.619Z,9.29
2023-05-12T01:21:35.524Z,9.26
2023-05-12T01:26:38.336Z,9.22
2023-05-12T01:31:41.434Z,9.16
2023-05-12T01:36:44.795Z,9.13
2023-05-12T01:41:47.541Z,9.09
2023-05-12T01:46:50.438Z,9.04
2023-05-12T01:51:53.361Z,8.98
2023-05-12T01:56:56.240Z,8.93
2023-05-12T02:01:59.088Z,8.91
2023-05-12T02:07:02.190Z,8.87
2023-05-12T02:12:05.603Z,8.81
2023-05-12T02:17:08.673Z,8.77
2023-05-12T02:22:11.450Z,8.75
2023-05-12T02:27:14.177Z,8.73
2023-05-12T02:32:16.986Z,8.69
2023-05-12T02:37:19.759Z,8.63
2023-05-12T02:42:22.501Z,8.58
2023-05-12T02:47:25.418Z,8.52
2023-05-12T02:52:28.323Z,8.47
2023-05-12T02:57:34.260Z,8.42
2023-05-12T03:02:38.660Z,8.40
2023-05-12T03:07:41.645Z,8.36
2023-05-12T03:12:44.580Z,8.33
2023-05-12T03:17:47.400Z,8.32
2023-05-12T03:22:50.304Z,8.33
2023-05-12T03:27:53.067Z,8.34
2023-05-12T03:32:56.264Z,8.34
2023-05-12T03:37:59.094Z,8.37
2023-05-12T03:43:01.918Z,8.40
2023-05-12T03:48:05.204Z,8.47
2023-05-12T03:53:08.035Z,8.54
2023-05-12T03:58:10.844Z,8.62
2023-05-12T04:03:13.902Z,8.71
2023-05-12T04:08:16.877Z,8.82
2023-05-12T04:13:19.664Z,8.93
2023-05-12T04:18:22.522Z,9.06
2023-05-12T04:23:25.611Z,9.19
2023-05-12T04:28:28.418Z,9.32
2023-05-12T04:33:31.473Z,9.46
2023-05-12T04:38:34.356Z,9.60
2023-05-12T04:48:44.503Z,9.85
2023-05-12T04:53:47.300Z,9.97
2023-05-12T04:58:50.087Z,10.11
2023-05-12T05:03:53.036Z,10.24
2023-05-12T05:08:56.154Z,10.39
2023-05-12T05:13:59.154Z,10.53
2023-05-12T05:19:05.824Z,10.68
2023-05-12T05:24:09.745Z,10.84
2023-05-12T05:29:12.863Z,11.00
2023-05-12T05:34:15.648Z,11.16
2023-05-12T05:39:18.487Z,11.33
2023-05-12T05:44:21.315Z,11.51
2023-05-12T05:49:24.094Z,11.67
2023-05-12T05:54:26.849Z,11.85
2023-05-12T05:59:29.688Z,12.02
2023-05-12T06:04:32.576Z,12.21
2023-05-12T06:09:35.350Z,12.39
2023-05-12T06:14:38.182Z,12.59
2023-05-12T06:19:41.090Z,12.80
2023-05-12T06:24:43.851Z,12.99
2023-05-12T06:29:46.733Z,13.18
2023-05-12T06:34:49.660Z,13.35
2023-05-12T06:39:52.513Z,13.54
2023-05-12T06:44:55.281Z,13.72
2023-05-12T06:49:58.064Z,13.92
2023-05-12T06:55:00.786Z,14.11
2023-05-12T07:00:05.065Z,14.32
2023-05-12T07:05:08.784Z,14.53
2023-05-12T07:10:11.821Z,14.70
2023-05-12T07:15:14.682Z,14.87
2023-05-12T07:20:18.152Z,15.08
2023-05-12T07:25:22.107Z,15.28
2023-05-12T07:30:25.326Z,15.41
2023-05-12T07:35:28.501Z,15.56
2023-05-12T07:40:31.376Z,15.76
2023-05-12T07:45:36.627Z,15.92
2023-05-12T07:50:39.708Z,16.05
2023-05-12T07:55:43.656Z,16.17
2023-05-12T08:00:46.524Z,16.31
2023-05-12T08:05:49.285Z,16.47
2023-05-12T08:10:52.098Z,16.68
2023-05-12T08:15:54.977Z,16.84
2023-05-12T08:20:57.897Z,17.00
2023-05-12T08:26:03.603Z,17.18
2023-05-12T08:31:06.956Z,17.32
2023-05-12T08:36:09.827Z,17.46
2023-05-12T08:41:35.417Z,17.54
2023-05-12T08:46:38.922Z,17.61
2023-05-12T08:51:42.136Z,17.73
2023-05-12T09:01:53.965Z,17.96
2023-05-12T09:06:58.308Z,18.09
2023-05-12T09:12:02.874Z,18.21
2023-05-12T09:17:05.711Z,18.39
2023-05-12T09:22:15.144Z,18.44
2023-05-12T09:27:30.463Z,18.55
2023-05-12T09:32:34.483Z,18.87
2023-05-12T09:37:37.894Z,19.14
2023-05-12T09:42:41.123Z,19.41
2023-05-12T09:47:45.639Z,19.78
2023-05-12T09:52:50.352Z,20.55
2023-05-12T09:57:53.144Z,21.43
2023-05-12T10:02:55.990Z,22.39
2023-05-12T10:07:58.843Z,23.38
2023-05-12T10:13:01.709Z,24.24
2023-05-12T10:18:07.704Z,25.03
2023-05-12T10:23:13.557Z,25.76
2023-05-12T10:28:19.073Z,26.66
2023-05-12T10:33:21.998Z,27.32
2023-05-12T10:38:25.464Z,28.03
2023-05-12T10:43:38.636Z,28.58
2023-05-12T10:49:03.418Z,29.21
2023-05-12T10:54:19.868Z,29.77
2023-05-12T10:59:27.734Z,30.47
2023-05-12T11:04:53.361Z,30.60
2023-05-12T11:10:01.034Z,30.33
2023-05-12T11:15:05.917Z,30.62
2023-05-12T11:20:12.532Z,30.49
2023-05-12T11:25:15.984Z,31.09
2023-05-12T11:30:19.867Z,31.84
2023-05-12T11:35:23.508Z,32.24
2023-05-12T11:40:26.504Z,33.49
2023-05-12T11:45:32.534Z,34.33
2023-05-12T11:50:42.858Z,33.55
2023-05-12T11:55:55.856Z,34.20
2023-05-12T12:01:12.281Z,35.12
2023-05-12T12:06:15.272Z,35.97
2023-05-12T12:11:20.675Z,36.80
2023-05-12T12:16:31.412Z,37.30
2023-05-12T12:21:35.317Z,36.38
2023-05-12T12:26:39.504Z,36.49
2023-05-12T12:31:42.641Z,37.02
2023-05-12T12:36:46.890Z,34.47
2023-05-12T12:41:49.722Z,33.36
2023-05-12T12:46:53.065Z,34.25
2023-05-12T12:51:55.954Z,35.02
2023-05-12T12:56:58.833Z,36.62
2023-05-12T13:02:02.515Z,38.32
2023-05-12T13:07:06.076Z,39.48
2023-05-12T13:12:08.920Z,39.71
2023-05-12T13:17:11.911Z,39.63
2023-05-12T13:22:14.946Z,40.21
2023-05-12T13:27:18.021Z,40.73
2023-05-12T13:32:20.939Z,41.43
2023-05-12T13:37:27.155Z,42.34
2023-05-12T13:42:30.282Z,42.21
2023-05-12T13:47:36.137Z,42.32
2023-05-12T13:52:39.157Z,42.15
2023-05-12T13:57:41.891Z,42.86
2023-05-12T14:02:45.303Z,43.57
2023-05-12T14:07:48.493Z,43.35
2023-05-12T14:12:51.345Z,42.93
2023-05-12T14:17:55.394Z,38.89
2023-05-12T14:22:58.219Z,35.31
2023-05-12T14:28:01.235Z,34.52
2023-05-12T14:33:04.823Z,34.36
2023-05-12T14:38:08.177Z,32.71
2023-05-12T14:43:11.005Z,31.15
2023-05-12T14:48:13.857Z,29.40
2023-05-12T14:53:16.676Z,28.15
2023-05-12T14:58:21.650Z,27.32
2023-05-12T15:03:24.936Z,26.60
2023-05-12T15:08:27.961Z,26.21
2023-05-12T15:13:31.104Z,25.80
2023-05-12T15:18:34.446Z,26.07
2023-05-12T15:23:37.362Z,25.64
2023-05-12T15:28:43.606Z,24.77
2023-05-12T15:33:46.483Z,23.95
2023-05-12T15:38:49.262Z,23.73
2023-05-12T15:43:52.030Z,23.65
2023-05-12T15:48:55.881Z,23.66
2023-05-12T15:53:58.673Z,23.67
2023-05-12T15:59:01.767Z,23.66
2023-05-12T16:04:04.580Z,23.27
2023-05-12T16:09:07.384Z,22.72
2023-05-12T16:14:10.110Z,22.18
2023-05-12T16:19:12.965Z,21.88
2023-05-12T16:24:15.877Z,21.71
2023-05-12T16:29:18.699Z,21.49
2023-05-12T16:34:21.588Z,21.27
2023-05-12T16:39:24.461Z,21.08
2023-05-12T16:44:27.190Z,20.89
2023-05-12T16:49:30.044Z,20.74
2023-05-12T16:54:32.914Z,20.51
2023-05-12T16:59:36.491Z,20.29
2023-05-12T17:04:39.287Z,20.06
2023-05-12T17:09:42.249Z,19.83
2023-05-12T17:14:48.024Z,19.59
2023-05-12T17:19:56.316Z,19.38
2023-05-12T17:25:12.276Z,19.17
2023-05-12T17:30:21.920Z,18.92
2023-05-12T17:35:25.248Z,18.71
2023-05-12T17:40:28.130Z,18.47
2023-05-12T17:45:31.038Z,18.25
2023-05-12T17:50:33.938Z,18.04
2023-05-12T17:55:37.163Z,17.87
2023-05-12T18:00:40.169Z,17.65
2023-05-12T18:05:43.862Z,17.44
2023-05-12T18:10:46.830Z,17.23
2023-05-12T18:15:50.159Z,17.01
2023-05-12T18:20:52.989Z,16.76
2023-05-12T18:25:56.385Z,16.53
2023-05-12T18:31:02.979Z,16.29
2023-05-12T18:36:16.480Z,16.01
2023-05-12T18:41:19.373Z,15.76
2023-05-12T18:46:22.197Z,15.51
2023-05-12T18:51:24.983Z,15.27
2023-05-12T18:56:27.857Z,15.02
2023-05-12T19:01:30.722Z,14.78
2023-05-12T19:06:33.611Z,14.55
2023-05-12T19:11:36.640Z,14.28
2023-05-12T19:16:42.444Z,14.05
2023-05-12T19:21:45.550Z,13.85
2023-05-12T19:26:48.278Z,13.63
2023-05-12T19:31:52.893Z,13.42
2023-05-12T19:36:56.288Z,13.21
2023-05-12T19:41:59.015Z,13.01
2023-05-12T19:47:04.927Z,12.79
2023-05-12T19:52:07.921Z,12.57
2023-05-12T19:57:10.790Z,12.36
2023-05-12T20:02:14.903Z,12.15
2023-05-12T20:07:17.766Z,11.97
2023-05-12T20:12:20.545Z,11.81
2023-05-12T20:17:23.445Z,11.65
2023-05-12T20:22:26.630Z,11.51
2023-05-12T20:27:31.272Z,11.37
2023-05-12T20:32:34.149Z,11.22
2023-05-12T20:37:37.475Z,11.10
2023-05-12T20:42:40.691Z,10.97
2023-05-12T20:47:43.480Z,10.86
2023-05-12T20:52:47.322Z,10.71
2023-05-12T20:57:50.054Z,10.58
2023-05-12T21:02:53.859Z,10.49
2023-05-12T21:07:56.763Z,10.39
2023-05-12T21:12:59.535Z,10.28
2023-05-12T21:18:02.381Z,10.18
2023-05-12T21:23:05.198Z,10.07
2023-05-12T21:28:07.983Z,9.98
2023-05-12T21:33:11.113Z,9.89
2023-05-12T21:38:13.923Z,9.80
2023-05-12T21:43:16.741Z,9.71
2023-05-12T21:48:19.583Z,9.61
2023-05-12T21:53:22.316Z,9.52
2023-05-12T21:58:25.281Z,9.45
2023-05-12T22:03:28.202Z,9.38
2023-05-12T22:08:31.001Z,9.27
2023-05-12T22:13:33.800Z,9.18
2023-05-12T22:18:37.772Z,9.11
2023-05-12T22:23:42.186Z,9.02
2023-05-12T22:28:45.012Z,8.97
2023-05-12T22:33:47.855Z,8.90
2023-05-12T22:38:50.624Z,8.85
2023-05-12T22:43:53.846Z,8.79
2023-05-12T22:48:58.012Z,8.72
2023-05-12T22:54:00.834Z,8.65
2023-05-12T22:59:03.673Z,8.64
2023-05-12T23:04:06.518Z,8.69
2023-05-12T23:09:09.648Z,8.74
2023-05-12T23:14:12.851Z,8.76
2023-05-12T23:19:15.955Z,8.77
2023-05-12T23:24:18.907Z,8.77
2023-05-12T23:29:21.732Z,8.78
2023-05-12T23:34:24.590Z,8.79
2023-05-12T23:39:27.422Z,8.82
2023-05-12T23:44:30.386Z,8.83
2023-05-12T23:49:33.196Z,8.81
2023-05-12T23:54:35.977Z,8.76
2023-05-12T23:59:38.979Z,8.76
